Terminal Aerodrome Forecast
Issued by NWS Wichita, KS

Home | Current Version | Previous Version | Graphics & Text | Print | Product List | Glossary On
Versions: 1 2 3 4 5 6 7 8 9 10 11 12 13 14 15 16 17 18 19
000
FTUS43 KICT 190419 AAB
TAFICT
TAF AMD
KICT 190419Z 1904/1924 18018G26KT P6SM BKN008 WS020/20050KT
     FM191400 20017G26KT P6SM SCT008 BKN012
     FM191900 22013KT P6SM BKN035=

USA.gov is the U.S. government's official web portal to all federal, state and local government web resources and services.